Time;durP1;ratioP1;P1;durP2;ratioP2;P2;SDS_P1;SDS_P2;PMS_P1;PMS_P2;Temp;Humidity;BMP_temperature;BMP_pressure;BME280_temperature;BME280_humidity;BME280_pressure;Samples;Min_cycle;Max_cycle;Signal;HPM_P1;HPM_P2
2021/06/28 00:00:17;;;;;;;2.10;1.67;;;21.90;1.00;;;;;;4866848;29;20044;-67
2021/06/28 00:03:06;;;;;;;5.40;1.40;;;21.90;1.00;;;;;;4862887;29;20140;-68
2021/06/28 00:05:55;;;;;;;1.58;1.42;;;21.90;1.00;;;;;;4845215;29;20045;-67
2021/06/28 00:08:44;;;;;;;1.70;1.35;;;21.90;1.00;;;;;;4868062;29;20171;-67
2021/06/28 00:11:32;;;;;;;2.95;1.33;;;21.90;1.00;;;;;;4869565;29;20057;-67
2021/06/28 00:14:22;;;;;;;4.38;1.40;;;21.80;1.00;;;;;;4863984;29;20109;-68
2021/06/28 00:17:11;;;;;;;1.40;1.05;;;21.80;1.00;;;;;;4857652;29;20639;-68
2021/06/28 00:19:59;;;;;;;1.08;1.00;;;21.80;1.00;;;;;;4864289;29;20064;-67
2021/06/28 00:22:49;;;;;;;1.30;1.20;;;21.80;1.00;;;;;;4865312;29;20498;-67
2021/06/28 00:25:38;;;;;;;5.15;1.50;;;21.80;1.00;;;;;;4865617;29;20417;-67
2021/06/28 00:28:27;;;;;;;2.75;1.58;;;21.80;1.00;;;;;;4868388;29;20721;-68
2021/06/28 00:31:17;;;;;;;2.42;1.30;;;21.80;1.00;;;;;;4869707;29;20049;-67
2021/06/28 00:34:06;;;;;;;1.67;1.38;;;21.80;1.00;;;;;;4863514;29;20124;-67
2021/06/28 00:36:54;;;;;;;1.30;1.20;;;21.70;1.00;;;;;;4867621;29;20425;-67
2021/06/28 00:39:43;;;;;;;1.33;1.23;;;21.70;1.00;;;;;;4865593;29;20053;-67
2021/06/28 00:42:31;;;;;;;1.75;1.40;;;21.70;1.00;;;;;;4866674;29;20049;-67
2021/06/28 00:45:22;;;;;;;2.55;1.40;;;21.60;1.00;;;;;;4862918;29;20049;-67
2021/06/28 00:48:13;;;;;;;2.15;1.42;;;21.50;1.00;;;;;;4857090;29;20072;-68
2021/06/28 00:51:02;;;;;;;2.22;1.40;;;21.30;1.00;;;;;;4868933;29;20046;-68
2021/06/28 00:53:51;;;;;;;1.60;1.50;;;21.30;1.00;;;;;;4869016;29;20064;-67
2021/06/28 00:56:39;;;;;;;2.40;1.30;;;21.20;1.00;;;;;;4859841;29;20060;-67
2021/06/28 00:59:29;;;;;;;1.92;1.42;;;21.20;1.00;;;;;;4864081;29;20049;-67
2021/06/28 01:02:18;;;;;;;2.10;1.40;;;21.20;1.00;;;;;;4868184;29;20512;-67
2021/06/28 01:05:11;;;;;;;1.90;1.63;;;21.30;1.00;;;;;;4881900;29;20052;-68
2021/06/28 01:08:00;;;;;;;1.67;1.58;;;21.20;1.00;;;;;;4859608;29;20046;-67
2021/06/28 01:10:49;;;;;;;2.63;1.48;;;21.20;1.00;;;;;;4865440;29;20413;-67
2021/06/28 01:13:41;;;;;;;1.45;1.27;;;21.10;1.00;;;;;;4866723;29;20072;-67
2021/06/28 01:16:29;;;;;;;2.05;1.70;;;21.10;1.00;;;;;;4864400;29;20050;-68
2021/06/28 01:19:26;;;;;;;1.60;1.50;;;21.20;1.00;;;;;;4861152;29;20530;-67
2021/06/28 01:22:20;;;;;;;1.67;1.52;;;21.10;1.00;;;;;;4864488;29;20045;-67
2021/06/28 01:25:12;;;;;;;1.60;1.50;;;21.10;1.00;;;;;;4866220;29;20828;-67
2021/06/28 01:28:01;;;;;;;4.25;1.50;;;21.10;1.00;;;;;;4858660;29;20064;-67
2021/06/28 01:30:50;;;;;;;2.33;1.70;;;21.10;1.00;;;;;;4865275;29;20061;-66
2021/06/28 01:33:40;;;;;;;1.58;1.48;;;21.10;1.00;;;;;;4865879;29;20496;-67
2021/06/28 01:36:28;;;;;;;1.90;1.70;;;21.00;1.00;;;;;;4859977;29;20618;-67
2021/06/28 01:39:16;;;;;;;1.60;1.50;;;21.00;1.00;;;;;;4863206;29;20050;-67
2021/06/28 01:42:07;;;;;;;1.70;1.60;;;21.00;1.00;;;;;;4865129;29;20417;-67
2021/06/28 01:44:56;;;;;;;2.58;1.50;;;20.90;1.00;;;;;;4862981;29;20048;-66
2021/06/28 01:47:46;;;;;;;1.83;1.73;;;20.80;1.00;;;;;;4859978;29;20044;-68
2021/06/28 01:50:38;;;;;;;1.70;1.58;;;20.80;1.00;;;;;;4864175;29;20049;-67
2021/06/28 01:53:27;;;;;;;1.90;1.63;;;20.70;1.30;;;;;;4866460;29;20154;-67
2021/06/28 01:56:15;;;;;;;3.15;1.67;;;20.60;2.50;;;;;;4865971;29;20057;-68
2021/06/28 01:59:05;;;;;;;2.78;1.98;;;20.50;3.70;;;;;;4867156;29;20057;-67
2021/06/28 02:01:53;;;;;;;1.98;1.77;;;20.50;4.30;;;;;;4862127;29;20069;-67
2021/06/28 02:04:42;;;;;;;2.60;2.35;;;20.50;4.80;;;;;;4864806;29;20078;-66
2021/06/28 02:07:30;;;;;;;2.00;1.80;;;20.40;5.80;;;;;;4859673;29;20655;-67
2021/06/28 02:10:19;;;;;;;2.03;1.83;;;20.40;6.70;;;;;;4867615;29;20049;-67
2021/06/28 02:13:07;;;;;;;2.10;1.90;;;20.40;7.40;;;;;;4862805;29;20064;-68
2021/06/28 02:15:58;;;;;;;2.13;1.85;;;20.40;7.50;;;;;;4862663;29;20045;-68
2021/06/28 02:18:46;;;;;;;2.83;2.13;;;20.20;7.80;;;;;;4868060;29;20328;-67
2021/06/28 02:21:35;;;;;;;3.20;2.15;;;20.20;8.60;;;;;;4862720;29;20049;-68
2021/06/28 02:24:24;;;;;;;2.40;2.20;;;20.30;8.70;;;;;;4865883;29;20077;-68
2021/06/28 02:27:13;;;;;;;3.05;2.35;;;20.30;8.40;;;;;;4848542;29;20072;-68
2021/06/28 02:30:02;;;;;;;3.95;2.22;;;20.30;8.30;;;;;;4863381;29;20061;-67
2021/06/28 02:32:51;;;;;;;2.53;2.13;;;20.30;8.90;;;;;;4865780;29;20057;-67
2021/06/28 02:35:40;;;;;;;2.15;1.95;;;20.20;9.60;;;;;;4863215;29;20045;-67
2021/06/28 02:38:29;;;;;;;2.50;1.73;;;20.00;10.60;;;;;;4861017;29;20057;-68
2021/06/28 02:41:19;;;;;;;2.50;2.10;;;19.80;12.00;;;;;;4863452;29;21132;-68
2021/06/28 02:44:27;;;;;;;2.50;2.30;;;19.90;12.10;;;;;;4834920;29;20079;-68
2021/06/28 02:47:16;;;;;;;2.40;2.20;;;19.90;12.00;;;;;;4860309;29;20428;-67
2021/06/28 02:50:08;;;;;;;3.15;2.35;;;19.80;12.50;;;;;;4865353;29;20053;-67
2021/06/28 02:52:57;;;;;;;2.60;2.20;;;19.80;12.70;;;;;;4863661;29;20421;-67
2021/06/28 02:55:47;;;;;;;2.75;2.22;;;19.80;12.90;;;;;;4861886;29;20037;-67
2021/06/28 02:58:35;;;;;;;2.50;2.30;;;19.90;12.30;;;;;;4865092;29;20053;-67
2021/06/28 03:01:26;;;;;;;3.10;2.65;;;19.90;12.20;;;;;;4862676;29;20056;-67
2021/06/28 03:04:05;;;;;;;2.63;2.42;;;20.00;11.40;;;;;;5172342;27;20105;-69
2021/06/28 03:06:44;;;;;;;2.65;2.30;;;20.00;11.90;;;;;;5142595;27;20727;-68
2021/06/28 03:09:24;;;;;;;3.20;2.33;;;19.90;10.90;;;;;;5172533;27;20114;-69
2021/06/28 03:12:05;;;;;;;4.68;2.35;;;20.10;11.00;;;;;;5163229;27;20106;-68
2021/06/28 03:14:44;;;;;;;2.40;2.20;;;20.10;11.00;;;;;;5158566;27;20118;-69
2021/06/28 03:17:24;;;;;;;3.75;2.50;;;20.10;11.10;;;;;;5166650;27;20521;-67
2021/06/28 03:20:04;;;;;;;3.20;2.00;;;20.10;11.00;;;;;;5161813;27;20568;-68
2021/06/28 03:22:50;;;;;;;3.22;2.45;;;20.20;11.60;;;;;;5168674;27;20445;-68
2021/06/28 03:25:30;;;;;;;3.70;2.10;;;20.20;11.10;;;;;;5150500;27;20122;-68
2021/06/28 03:28:09;;;;;;;5.00;2.30;;;20.10;11.30;;;;;;5154538;27;20113;-68
2021/06/28 03:30:49;;;;;;;2.20;1.98;;;20.10;10.90;;;;;;5158358;27;20122;-69
2021/06/28 03:33:29;;;;;;;2.92;2.33;;;20.20;11.00;;;;;;5168679;27;20125;-68
2021/06/28 03:36:09;;;;;;;3.40;2.25;;;20.10;11.60;;;;;;5142692;27;20584;-67
2021/06/28 03:38:48;;;;;;;3.45;2.50;;;20.00;11.40;;;;;;5156098;27;20114;-68
2021/06/28 03:41:28;;;;;;;2.45;2.03;;;20.10;11.00;;;;;;5164812;27;20409;-67
2021/06/28 03:44:08;;;;;;;5.35;2.47;;;20.20;11.10;;;;;;5172584;27;20102;-68
2021/06/28 03:46:48;;;;;;;3.85;2.60;;;20.20;11.10;;;;;;5151581;27;20118;-68
2021/06/28 03:49:27;;;;;;;6.40;2.15;;;20.30;10.50;;;;;;5157417;27;20106;-68
2021/06/28 03:52:09;;;;;;;4.38;2.65;;;20.30;10.00;;;;;;5161195;27;20185;-68
2021/06/28 03:54:49;;;;;;;3.45;2.03;;;20.20;10.30;;;;;;5159821;27;20466;-68
2021/06/28 03:57:29;;;;;;;3.22;2.28;;;20.30;10.00;;;;;;5156930;27;20110;-68
2021/06/28 04:00:17;;;;;;;6.15;2.40;;;20.30;10.10;;;;;;5172358;27;20180;-67
2021/06/28 04:02:58;;;;;;;2.75;2.30;;;20.30;11.40;;;;;;5156688;27;20874;-67
2021/06/28 04:05:41;;;;;;;5.80;2.63;;;20.20;11.10;;;;;;5151706;27;20193;-68
2021/06/28 04:08:20;;;;;;;2.83;2.63;;;20.20;11.40;;;;;;5150929;27;20581;-66
2021/06/28 04:11:00;;;;;;;4.40;2.30;;;20.30;11.20;;;;;;5161622;27;20111;-68
2021/06/28 04:13:40;;;;;;;3.65;2.35;;;20.20;11.90;;;;;;5162360;27;20505;-68
2021/06/28 04:16:20;;;;;;;3.25;2.42;;;20.20;14.00;;;;;;5165513;27;20114;-68
2021/06/28 04:19:00;;;;;;;4.10;2.25;;;20.20;15.10;;;;;;5155010;27;20115;-68
2021/06/28 04:21:40;;;;;;;3.78;2.42;;;20.10;16.20;;;;;;5157507;27;20106;-68
2021/06/28 04:24:19;;;;;;;5.15;2.88;;;20.20;16.10;;;;;;5157482;27;20105;-68
2021/06/28 04:26:59;;;;;;;5.70;2.90;;;20.20;16.20;;;;;;5126094;27;20562;-67
2021/06/28 04:29:39;;;;;;;3.85;2.72;;;20.00;17.80;;;;;;5175928;27;20109;-68
2021/06/28 04:32:21;;;;;;;10.05;3.95;;;20.00;18.30;;;;;;5162036;27;20185;-67
2021/06/28 04:35:00;;;;;;;9.18;3.20;;;20.00;18.30;;;;;;5153681;27;20107;-68
2021/06/28 04:37:41;;;;;;;5.13;2.90;;;20.10;17.60;;;;;;5169995;27;20113;-68
2021/06/28 04:40:25;;;;;;;3.38;2.70;;;20.20;16.10;;;;;;5157189;27;20528;-67
2021/06/28 04:43:07;;;;;;;4.13;2.90;;;20.20;15.60;;;;;;5154987;27;20185;-67
2021/06/28 04:45:46;;;;;;;4.32;2.92;;;20.20;15.40;;;;;;5170666;27;20417;-67
2021/06/28 04:48:26;;;;;;;3.88;2.65;;;20.30;15.40;;;;;;5158945;27;20114;-69
2021/06/28 04:51:06;;;;;;;4.88;2.65;;;20.20;15.60;;;;;;5153185;27;20106;-68
2021/06/28 04:53:45;;;;;;;6.28;2.60;;;20.20;15.90;;;;;;5155885;27;20114;-68
2021/06/28 04:56:25;;;;;;;3.03;2.72;;;20.20;15.40;;;;;;5153070;27;20118;-68
2021/06/28 04:59:07;;;;;;;5.78;3.00;;;20.30;14.80;;;;;;5106172;27;20112;-68
2021/06/28 05:01:46;;;;;;;3.00;2.70;;;20.40;15.10;;;;;;5172877;27;20112;-68
2021/06/28 05:04:28;;;;;;;4.47;2.80;;;20.40;14.90;;;;;;5163622;27;20178;-68
2021/06/28 05:07:08;;;;;;;4.88;3.17;;;20.30;14.80;;;;;;5168016;27;20468;-67
2021/06/28 05:09:47;;;;;;;4.75;2.97;;;20.40;16.00;;;;;;5168765;27;20114;-67
2021/06/28 05:12:27;;;;;;;5.75;3.03;;;20.50;15.00;;;;;;5154455;27;20111;-66
2021/06/28 05:15:08;;;;;;;5.03;3.30;;;20.50;15.00;;;;;;5157035;27;20116;-67
2021/06/28 05:17:50;;;;;;;4.63;3.20;;;20.70;14.30;;;;;;5167392;27;20110;-67
2021/06/28 05:20:30;;;;;;;3.45;2.45;;;21.50;8.20;;;;;;5155771;27;20113;-68
2021/06/28 05:23:09;;;;;;;3.95;2.55;;;24.00;1.00;;;;;;5171263;27;20117;-68
2021/06/28 05:25:50;;;;;;;3.67;2.85;;;25.40;1.00;;;;;;5161367;27;20134;-68
2021/06/28 05:28:29;;;;;;;8.10;2.97;;;24.90;1.00;;;;;;5155865;27;20577;-68
2021/06/28 05:31:09;;;;;;;5.65;3.00;;;25.40;1.00;;;;;;5155902;27;20098;-68
2021/06/28 05:33:49;;;;;;;4.45;2.88;;;25.10;1.00;;;;;;5156998;27;20114;-67
2021/06/28 05:36:31;;;;;;;4.53;2.92;;;25.80;1.00;;;;;;5138914;27;20127;-67
2021/06/28 05:39:10;;;;;;;4.65;3.13;;;24.50;1.00;;;;;;5155640;27;20570;-68
2021/06/28 05:41:52;;;;;;;4.15;2.97;;;22.70;1.00;;;;;;5157488;27;20524;-67
2021/06/28 05:44:31;;;;;;;3.47;2.67;;;23.20;1.00;;;;;;5099267;27;20110;-68
2021/06/28 05:47:14;;;;;;;4.32;3.08;;;23.40;1.00;;;;;;5168021;27;20106;-68
2021/06/28 05:49:52;;;;;;;8.82;3.15;;;22.80;1.00;;;;;;5155372;27;20102;-68
2021/06/28 05:52:33;;;;;;;5.00;3.10;;;24.80;1.00;;;;;;5156344;27;20451;-66
2021/06/28 05:55:13;;;;;;;6.22;3.15;;;25.50;1.00;;;;;;5155917;27;20118;-69
2021/06/28 05:57:53;;;;;;;3.75;2.70;;;25.60;1.00;;;;;;5165600;27;20112;-68
2021/06/28 06:00:35;;;;;;;7.57;3.22;;;25.40;1.00;;;;;;5167792;27;20585;-68
2021/06/28 06:03:17;;;;;;;4.32;2.70;;;24.30;1.00;;;;;;5159569;27;20115;-67
2021/06/28 06:05:58;;;;;;;4.78;2.53;;;23.50;1.00;;;;;;5147796;27;20185;-68
2021/06/28 06:08:39;;;;;;;3.17;2.60;;;23.50;1.00;;;;;;5152111;27;20467;-67
2021/06/28 06:11:21;;;;;;;4.00;2.50;;;23.50;1.00;;;;;;5157849;27;20189;-67
2021/06/28 06:14:02;;;;;;;2.92;2.35;;;23.40;1.00;;;;;;5159936;27;20865;-68
2021/06/28 06:16:42;;;;;;;4.15;2.20;;;23.00;1.00;;;;;;5154799;27;20110;-68
2021/06/28 06:19:22;;;;;;;2.25;1.90;;;23.20;1.00;;;;;;5169563;27;20198;-68
2021/06/28 06:22:01;;;;;;;3.80;2.05;;;23.60;1.00;;;;;;5156719;27;20110;-68
2021/06/28 06:24:41;;;;;;;2.85;2.03;;;24.00;1.00;;;;;;5158520;27;20123;-68
2021/06/28 06:27:21;;;;;;;5.43;2.33;;;24.40;1.00;;;;;;5152936;27;20487;-67
2021/06/28 06:30:01;;;;;;;2.55;1.90;;;24.70;1.00;;;;;;5159587;27;20111;-68
2021/06/28 06:32:40;;;;;;;4.53;2.10;;;24.70;1.00;;;;;;5159829;27;20122;-68
2021/06/28 06:35:21;;;;;;;3.95;2.10;;;24.90;1.00;;;;;;5169434;27;20121;-68
2021/06/28 06:38:03;;;;;;;3.63;2.15;;;24.90;1.00;;;;;;5151869;27;21091;-68
2021/06/28 06:40:42;;;;;;;3.30;2.20;;;25.50;1.00;;;;;;5166877;27;20110;-67
2021/06/28 06:43:21;;;;;;;3.33;2.17;;;25.00;1.00;;;;;;5158975;27;20123;-68
2021/06/28 06:46:01;;;;;;;3.42;1.90;;;25.40;1.00;;;;;;5145063;27;20116;-68
2021/06/28 06:48:43;;;;;;;2.75;2.10;;;24.90;1.00;;;;;;5158893;27;20119;-67
2021/06/28 06:51:22;;;;;;;2.38;2.17;;;24.80;1.00;;;;;;5161336;27;20106;-67
2021/06/28 06:54:02;;;;;;;3.08;2.17;;;24.40;1.00;;;;;;5158581;27;20468;-67
2021/06/28 06:56:42;;;;;;;7.07;2.95;;;24.40;1.00;;;;;;5150080;27;20108;-67
2021/06/28 06:59:22;;;;;;;3.65;1.90;;;24.40;1.00;;;;;;5156242;27;20119;-68
2021/06/28 07:02:01;;;;;;;3.03;2.13;;;24.60;1.00;;;;;;5158550;27;20107;-68
2021/06/28 07:04:41;;;;;;;5.38;3.60;;;24.00;1.00;;;;;;5171830;27;20110;-68
2021/06/28 07:07:23;;;;;;;12.25;9.43;;;24.50;1.00;;;;;;5165469;27;20173;-68
2021/06/28 07:10:03;;;;;;;3.50;2.13;;;25.10;1.00;;;;;;5160263;27;20118;-67
2021/06/28 07:12:43;;;;;;;3.67;2.08;;;25.50;1.00;;;;;;5161163;27;20106;-68
2021/06/28 07:15:23;;;;;;;2.53;1.90;;;25.60;1.00;;;;;;5165535;27;20115;-68
2021/06/28 07:18:05;;;;;;;2.17;1.98;;;25.80;1.00;;;;;;5152767;27;20111;-68
2021/06/28 07:20:43;;;;;;;4.05;2.10;;;25.60;1.00;;;;;;5164724;27;20127;-67
2021/06/28 07:23:23;;;;;;;2.35;1.95;;;25.80;1.00;;;;;;5155745;27;20107;-67
2021/06/28 07:26:04;;;;;;;3.88;2.53;;;26.00;1.00;;;;;;5155234;27;20110;-68
2021/06/28 07:28:43;;;;;;;5.05;2.20;;;25.40;1.00;;;;;;5161113;27;20110;-68
2021/06/28 07:31:23;;;;;;;1.98;1.77;;;25.10;1.00;;;;;;5155499;27;20107;-67
2021/06/28 07:34:02;;;;;;;2.42;1.90;;;25.10;1.00;;;;;;5155615;27;20477;-67
2021/06/28 07:36:42;;;;;;;2.15;1.95;;;24.80;1.00;;;;;;5149414;27;20113;-67
2021/06/28 07:39:22;;;;;;;2.42;1.80;;;25.30;1.00;;;;;;5093697;27;20113;-68
2021/06/28 07:42:05;;;;;;;2.20;2.00;;;24.90;1.00;;;;;;5158524;27;20201;-67
2021/06/28 07:44:45;;;;;;;3.05;2.00;;;25.10;1.00;;;;;;5171539;27;20114;-67
2021/06/28 07:47:27;;;;;;;3.25;2.20;;;25.70;1.00;;;;;;5155893;27;20109;-68
2021/06/28 07:50:08;;;;;;;4.35;1.80;;;25.90;1.00;;;;;;5155150;27;20126;-67
2021/06/28 07:52:48;;;;;;;3.55;1.90;;;25.40;1.00;;;;;;5157619;27;20102;-67
2021/06/28 07:55:27;;;;;;;2.15;1.73;;;25.40;1.00;;;;;;5173793;27;20120;-67
2021/06/28 07:58:07;;;;;;;1.70;1.60;;;25.40;1.00;;;;;;5155420;27;20109;-68
2021/06/28 08:00:49;;;;;;;2.58;1.70;;;25.60;1.00;;;;;;5158130;27;20572;-66
2021/06/28 08:03:33;;;;;;;1.73;1.58;;;25.60;1.00;;;;;;5155986;27;20099;-66
2021/06/28 08:06:13;;;;;;;1.85;1.73;;;25.70;1.00;;;;;;5154479;27;20787;-68
2021/06/28 08:08:54;;;;;;;2.55;1.77;;;25.60;1.00;;;;;;5157427;27;20115;-68
2021/06/28 08:11:34;;;;;;;5.35;1.90;;;25.80;1.00;;;;;;5179436;27;20119;-67
2021/06/28 08:14:16;;;;;;;2.58;1.77;;;26.10;1.00;;;;;;5157804;27;20106;-67
2021/06/28 08:16:57;;;;;;;2.40;1.60;;;26.20;1.00;;;;;;5131052;27;20116;-67
2021/06/28 08:19:37;;;;;;;2.10;1.67;;;25.70;1.00;;;;;;5168981;27;20118;-68
2021/06/28 08:22:17;;;;;;;3.60;1.60;;;25.70;1.00;;;;;;5162260;27;20106;-67
2021/06/28 08:24:56;;;;;;;5.00;2.45;;;25.80;1.00;;;;;;5158595;27;20488;-68
2021/06/28 08:27:36;;;;;;;4.38;2.10;;;25.80;1.00;;;;;;5150961;27;20122;-68
2021/06/28 08:30:18;;;;;;;8.68;1.80;;;26.10;1.00;;;;;;5156488;27;20115;-66
2021/06/28 08:32:57;;;;;;;2.90;1.80;;;26.20;1.00;;;;;;5171256;27;20113;-67
2021/06/28 08:35:37;;;;;;;1.90;1.70;;;26.40;1.00;;;;;;5164677;27;20476;-66
2021/06/28 08:38:17;;;;;;;2.13;1.75;;;26.40;1.00;;;;;;5151745;27;20111;-66
2021/06/28 08:40:57;;;;;;;1.52;1.40;;;26.10;1.00;;;;;;5154260;27;20105;-67
2021/06/28 08:43:37;;;;;;;3.33;1.60;;;26.50;1.00;;;;;;5159051;27;20110;-68
2021/06/28 08:46:18;;;;;;;1.60;1.50;;;26.60;1.00;;;;;;5148921;27;20119;-67
2021/06/28 08:48:59;;;;;;;3.28;1.70;;;27.00;1.00;;;;;;5156736;27;20225;-67
2021/06/28 08:51:38;;;;;;;2.72;1.60;;;27.20;1.00;;;;;;5170861;27;20106;-69
2021/06/28 08:54:17;;;;;;;8.93;3.30;;;27.30;1.00;;;;;;5154315;27;20111;-67
2021/06/28 08:57:00;;;;;;;2.28;1.25;;;27.80;1.00;;;;;;5135410;27;20255;-67
2021/06/28 08:59:42;;;;;;;7.13;3.22;;;26.50;1.00;;;;;;5084906;27;20545;-68
2021/06/28 09:02:24;;;;;;;3.15;1.83;;;27.70;1.00;;;;;;5169469;27;20663;-67
2021/06/28 09:05:07;;;;;;;6.43;2.80;;;27.60;1.00;;;;;;5147232;27;20127;-68
2021/06/28 09:07:48;;;;;;;3.40;1.60;;;28.00;1.00;;;;;;5144042;27;20468;-67
2021/06/28 09:10:35;;;;;;;4.10;1.98;;;28.30;1.00;;;;;;5151980;27;20264;-67
2021/06/28 09:13:15;;;;;;;2.45;2.10;;;28.00;1.00;;;;;;5148595;27;20103;-66
2021/06/28 09:15:57;;;;;;;2.40;2.00;;;28.00;1.00;;;;;;5141857;27;20127;-67
2021/06/28 09:18:36;;;;;;;3.80;2.85;;;28.30;1.00;;;;;;5154013;27;20121;-67
2021/06/28 09:21:16;;;;;;;1.52;1.42;;;27.40;1.00;;;;;;5156439;27;20115;-67
2021/06/28 09:23:59;;;;;;;1.60;1.50;;;27.30;1.00;;;;;;5168474;27;20263;-68
2021/06/28 09:26:39;;;;;;;1.67;1.55;;;27.20;1.00;;;;;;5137589;27;20131;-68
2021/06/28 09:29:33;;;;;;;2.97;1.88;;;27.40;1.00;;;;;;5146539;27;20122;-68
2021/06/28 09:32:14;;;;;;;3.65;1.88;;;26.90;1.00;;;;;;5167675;27;20113;-68
2021/06/28 09:34:55;;;;;;;2.63;1.40;;;27.30;1.00;;;;;;5156979;27;20113;-68
2021/06/28 09:37:41;;;;;;;2.90;1.80;;;27.50;1.00;;;;;;5145542;27;20122;-67
2021/06/28 09:40:24;;;;;;;1.65;1.55;;;27.20;1.00;;;;;;5150664;27;20357;-67
2021/06/28 09:43:22;;;;;;;1.65;1.55;;;27.40;1.00;;;;;;5151339;27;20111;-68
2021/06/28 09:46:01;;;;;;;2.67;1.52;;;28.10;1.00;;;;;;5146472;27;20634;-67
2021/06/28 09:48:47;;;;;;;2.50;1.65;;;28.00;1.00;;;;;;5154092;27;20319;-67
2021/06/28 09:51:30;;;;;;;2.47;1.52;;;27.20;1.00;;;;;;5150108;27;20384;-68
2021/06/28 09:54:19;;;;;;;2.38;1.75;;;27.70;1.00;;;;;;5164581;27;20110;-68
2021/06/28 09:56:58;;;;;;;2.35;1.70;;;27.30;1.00;;;;;;5143504;27;20122;-68
2021/06/28 09:59:39;;;;;;;2.55;1.50;;;28.00;1.00;;;;;;5157763;27;20577;-68
2021/06/28 10:02:25;;;;;;;1.90;1.60;;;27.90;1.00;;;;;;5170298;27;20114;-68
2021/06/28 10:05:14;;;;;;;2.00;1.50;;;27.60;1.00;;;;;;5148218;27;20447;-66
2021/06/28 10:07:55;;;;;;;2.53;1.60;;;28.00;1.00;;;;;;5144662;27;20902;-67
2021/06/28 10:10:37;;;;;;;1.90;1.70;;;27.80;1.00;;;;;;5152048;27;20109;-67
2021/06/28 10:13:22;;;;;;;2.90;1.92;;;28.50;1.00;;;;;;5152801;27;20569;-67
2021/06/28 10:16:04;;;;;;;1.70;1.60;;;28.00;1.00;;;;;;5136523;27;20122;-68
2021/06/28 10:18:44;;;;;;;2.95;1.80;;;27.60;1.00;;;;;;5162969;27;20284;-68
2021/06/28 10:21:24;;;;;;;3.25;1.83;;;27.60;1.00;;;;;;5156435;27;20114;-68
2021/06/28 10:24:05;;;;;;;3.60;1.58;;;28.10;1.00;;;;;;5154388;27;20114;-67
2021/06/28 10:26:45;;;;;;;3.72;1.67;;;28.10;1.00;;;;;;5148991;27;20808;-67
2021/06/28 10:29:24;;;;;;;2.65;1.80;;;28.20;1.00;;;;;;5165132;27;20121;-67
2021/06/28 10:32:08;;;;;;;4.10;1.90;;;28.70;1.00;;;;;;5147872;27;20126;-67
2021/06/28 10:34:53;;;;;;;1.63;1.52;;;28.10;1.00;;;;;;5149745;27;20110;-68
2021/06/28 10:37:34;;;;;;;2.05;1.70;;;28.40;1.00;;;;;;5152193;27;20110;-67
2021/06/28 10:40:15;;;;;;;1.80;1.58;;;28.20;1.00;;;;;;5156541;27;20122;-68
2021/06/28 10:42:56;;;;;;;3.80;1.70;;;27.80;1.00;;;;;;5149751;27;20119;-67
2021/06/28 10:45:40;;;;;;;2.90;1.60;;;28.00;1.00;;;;;;5149331;27;20726;-67
2021/06/28 10:48:23;;;;;;;2.28;2.08;;;28.20;1.00;;;;;;5122094;27;20322;-67
2021/06/28 10:51:04;;;;;;;2.78;1.55;;;28.40;1.00;;;;;;5156621;27;20114;-68
2021/06/28 10:54:17;;;;;;;2.00;1.70;;;28.50;1.00;;;;;;5156053;27;20572;-67
2021/06/28 10:57:39;;;;;;;2.28;1.88;;;28.30;1.00;;;;;;5122347;27;20443;-68
2021/06/28 11:00:51;;;;;;;3.25;1.75;;;28.30;1.00;;;;;;5117888;27;20157;-66
2021/06/28 11:04:05;;;;;;;2.03;1.77;;;27.20;1.00;;;;;;5129565;27;20490;-67
2021/06/28 11:07:17;;;;;;;2.75;1.83;;;27.70;1.00;;;;;;5120852;27;20537;-67
2021/06/28 11:10:41;;;;;;;2.05;1.48;;;27.70;1.00;;;;;;5130564;27;20152;-67
2021/06/28 11:13:56;;;;;;;2.35;1.73;;;28.80;1.00;;;;;;5118100;27;20035;-66
2021/06/28 11:17:07;;;;;;;2.60;1.60;;;28.90;1.00;;;;;;5120204;27;20052;-67
2021/06/28 11:20:37;;;;;;;1.98;1.70;;;28.50;1.00;;;;;;5128680;27;20054;-67
2021/06/28 11:23:58;;;;;;;2.78;2.30;;;28.30;1.00;;;;;;5130018;27;20051;-67
2021/06/28 11:26:48;;;;;;;2.22;1.75;;;29.00;1.00;;;;;;5119317;27;20051;-67
2021/06/28 11:29:51;;;;;;;2.67;1.85;;;29.00;1.00;;;;;;5148713;27;20118;-66
2021/06/28 11:32:39;;;;;;;3.40;2.00;;;28.50;1.00;;;;;;5155720;27;20114;-68
2021/06/28 11:35:39;;;;;;;1.97;1.70;;;28.80;1.00;;;;;;5130245;27;20055;-67
2021/06/28 11:38:28;;;;;;;1.98;1.63;;;29.10;1.00;;;;;;5109002;27;20274;-67
2021/06/28 11:41:17;;;;;;;2.13;1.70;;;28.80;1.00;;;;;;5153258;27;20110;-67
2021/06/28 11:43:58;;;;;;;2.65;1.77;;;29.00;1.00;;;;;;5152466;27;20118;-67
2021/06/28 11:46:48;;;;;;;1.70;1.60;;;29.00;1.00;;;;;;5141520;27;20119;-67
2021/06/28 11:49:28;;;;;;;2.65;2.10;;;28.80;1.00;;;;;;5148536;27;20111;-67
2021/06/28 11:52:14;;;;;;;1.88;1.67;;;28.80;1.00;;;;;;5153497;27;20456;-67
2021/06/28 11:55:05;;;;;;;2.45;1.77;;;28.90;1.00;;;;;;5146413;27;20358;-67
2021/06/28 11:57:52;;;;;;;1.73;1.63;;;28.80;1.00;;;;;;5104891;27;20119;-68
2021/06/28 12:00:33;;;;;;;2.03;1.83;;;28.90;1.00;;;;;;5156341;27;20119;-67
2021/06/28 12:03:16;;;;;;;2.53;1.88;;;29.30;1.00;;;;;;5151194;27;20119;-66
2021/06/28 12:06:06;;;;;;;8.32;2.10;;;29.20;1.00;;;;;;5144665;27;20122;-66
2021/06/28 12:09:02;;;;;;;1.85;1.75;;;29.50;1.00;;;;;;5145578;27;20123;-67
2021/06/28 12:11:54;;;;;;;3.92;1.85;;;28.70;1.00;;;;;;5165802;27;20101;-67
2021/06/28 12:14:40;;;;;;;3.53;2.00;;;28.70;1.00;;;;;;5166172;27;20456;-66
2021/06/28 12:17:23;;;;;;;1.50;1.40;;;29.40;1.00;;;;;;5146152;27;20122;-67
2021/06/28 12:20:18;;;;;;;4.82;2.00;;;29.20;1.00;;;;;;5144197;27;20474;-68
2021/06/28 12:23:08;;;;;;;2.85;1.80;;;29.10;1.00;;;;;;5151441;27;20354;-66
2021/06/28 12:25:48;;;;;;;2.08;1.88;;;29.00;1.00;;;;;;5144572;27;20114;-66
2021/06/28 12:28:30;;;;;;;3.75;2.50;;;29.10;1.00;;;;;;5153163;27;20114;-67
2021/06/28 12:31:17;;;;;;;2.03;1.60;;;29.20;1.00;;;;;;5088174;27;20106;-66
2021/06/28 12:33:57;;;;;;;2.92;1.90;;;29.50;1.00;;;;;;5153567;27;20372;-66
2021/06/28 12:36:38;;;;;;;2.22;1.48;;;28.90;1.00;;;;;;5132921;27;20665;-68
2021/06/28 12:39:23;;;;;;;3.15;2.10;;;28.90;1.00;;;;;;5156046;27;20126;-67
2021/06/28 12:42:15;;;;;;;2.33;1.77;;;29.20;1.00;;;;;;5153959;27;20647;-67
2021/06/28 12:44:55;;;;;;;4.25;1.90;;;29.10;1.00;;;;;;5151684;27;21455;-66
2021/06/28 12:47:35;;;;;;;3.50;1.88;;;29.50;1.00;;;;;;5147528;27;20114;-66
2021/06/28 12:50:16;;;;;;;3.00;2.00;;;29.50;1.00;;;;;;5147824;27;20110;-67
2021/06/28 12:52:54;;;;;;;2.92;2.20;;;29.50;1.00;;;;;;5153416;27;20118;-67
2021/06/28 12:55:34;;;;;;;2.40;1.92;;;30.00;1.00;;;;;;5146329;27;20127;-67
2021/06/28 12:58:18;;;;;;;2.22;1.63;;;29.30;1.00;;;;;;5150866;27;20438;-67
2021/06/28 13:00:57;;;;;;;2.97;1.73;;;29.20;1.00;;;;;;5163955;27;20117;-66
2021/06/28 13:03:39;;;;;;;1.88;1.77;;;29.40;1.00;;;;;;5150341;27;20122;-67
2021/06/28 13:06:21;;;;;;;2.10;1.92;;;29.40;1.00;;;;;;5132389;27;20466;-66
2021/06/28 13:09:12;;;;;;;3.33;1.92;;;29.00;1.00;;;;;;5087443;27;20125;-68
2021/06/28 13:11:55;;;;;;;3.80;2.22;;;29.90;1.00;;;;;;5152602;27;20572;-67
2021/06/28 13:14:37;;;;;;;2.88;2.10;;;29.70;1.00;;;;;;5159816;27;20320;-65
2021/06/28 13:17:27;;;;;;;5.18;1.95;;;29.80;1.00;;;;;;5151010;27;20565;-66
2021/06/28 13:20:18;;;;;;;2.03;1.83;;;29.40;1.00;;;;;;5158508;27;20110;-67
2021/06/28 13:22:57;;;;;;;4.35;2.10;;;29.60;1.00;;;;;;5172776;27;20106;-67
2021/06/28 13:25:37;;;;;;;4.53;2.40;;;29.90;1.00;;;;;;5170412;27;20119;-67
2021/06/28 13:28:17;;;;;;;2.75;2.30;;;30.20;1.00;;;;;;5151316;27;20107;-67
2021/06/28 13:31:02;;;;;;;2.35;2.10;;;30.10;1.00;;;;;;5156959;27;20556;-68
2021/06/28 13:34:01;;;;;;;3.20;2.20;;;29.90;1.00;;;;;;5160713;27;20107;-69
2021/06/28 13:36:41;;;;;;;2.20;2.00;;;29.30;1.00;;;;;;5135648;27;20112;-67
2021/06/28 13:39:37;;;;;;;3.05;2.25;;;28.90;1.00;;;;;;5153550;27;20131;-68
2021/06/28 13:42:26;;;;;;;2.38;2.13;;;29.30;1.00;;;;;;5172694;27;20186;-68
2021/06/28 13:45:11;;;;;;;2.88;2.08;;;29.30;1.00;;;;;;5166391;27;20110;-67
2021/06/28 13:47:56;;;;;;;2.88;1.95;;;29.30;1.00;;;;;;5146152;27;20699;-68
2021/06/28 13:50:39;;;;;;;3.28;2.15;;;29.50;1.00;;;;;;5168895;27;20113;-66
2021/06/28 13:53:21;;;;;;;3.45;1.98;;;29.20;1.00;;;;;;5173207;27;20105;-69
2021/06/28 13:56:07;;;;;;;3.40;2.50;;;29.50;1.00;;;;;;5077630;27;20513;-69
2021/06/28 13:58:50;;;;;;;2.55;2.17;;;29.20;1.00;;;;;;5147922;27;20713;-67
2021/06/28 14:01:30;;;;;;;2.47;2.28;;;29.30;1.00;;;;;;5158862;27;20105;-68
2021/06/28 14:04:09;;;;;;;2.47;2.10;;;29.50;1.00;;;;;;5171809;27;20117;-67
2021/06/28 14:06:49;;;;;;;6.57;2.60;;;29.30;1.00;;;;;;5145269;27;20482;-68
2021/06/28 14:09:31;;;;;;;3.00;2.35;;;29.60;1.00;;;;;;5173473;27;20181;-68
2021/06/28 14:12:12;;;;;;;3.10;2.40;;;29.80;1.00;;;;;;5137553;27;20110;-68
2021/06/28 14:14:50;;;;;;;4.32;2.60;;;29.50;1.00;;;;;;5153186;27;20114;-66
2021/06/28 14:17:30;;;;;;;2.60;2.40;;;29.40;1.00;;;;;;5153638;27;20833;-68
2021/06/28 14:20:13;;;;;;;3.97;2.80;;;29.70;1.00;;;;;;5169697;27;20105;-66
2021/06/28 14:22:52;;;;;;;3.05;2.60;;;29.60;1.00;;;;;;5155284;27;20114;-68
2021/06/28 14:25:33;;;;;;;3.38;2.63;;;29.50;1.00;;;;;;5168370;27;20167;-66